createdAt,value
2022-08-03T00:01:31.465Z,21.91
2022-08-03T00:03:59.100Z,21.77
2022-08-03T00:06:26.501Z,21.18
2022-08-03T00:08:53.855Z,21.55
2022-08-03T00:11:21.482Z,21.62
2022-08-03T00:13:48.870Z,21.47
2022-08-03T00:16:16.560Z,21.94
2022-08-03T00:18:44.716Z,21.64
2022-08-03T00:21:12.145Z,21.74
2022-08-03T00:23:51.736Z,21.87
2022-08-03T00:26:23.174Z,21.88
2022-08-03T00:28:50.943Z,21.93
2022-08-03T00:31:37.986Z,21.82
2022-08-03T00:34:06.873Z,22.03
2022-08-03T00:36:34.338Z,21.88
2022-08-03T00:39:01.792Z,21.79
2022-08-03T00:41:29.392Z,21.90
2022-08-03T00:43:56.724Z,21.78
2022-08-03T00:46:24.075Z,21.62
2022-08-03T00:48:53.444Z,21.23
2022-08-03T00:51:21.749Z,21.63
2022-08-03T00:53:49.952Z,21.41
2022-08-03T00:56:17.927Z,21.19
2022-08-03T00:58:46.675Z,21.14
2022-08-03T01:01:15.076Z,21.20
2022-08-03T01:03:42.966Z,20.96
2022-08-03T01:06:25.952Z,21.17
2022-08-03T01:11:34.639Z,21.15
2022-08-03T01:14:18.665Z,20.75
2022-08-03T01:17:07.600Z,20.91
2022-08-03T01:19:50.805Z,20.82
2022-08-03T01:22:57.777Z,20.92
2022-08-03T01:25:59.321Z,20.82
2022-08-03T01:28:34.168Z,21.07
2022-08-03T01:31:08.222Z,20.97
2022-08-03T01:33:39.888Z,21.04
2022-08-03T01:36:15.496Z,21.01
2022-08-03T01:38:48.075Z,20.93
2022-08-03T01:41:20.517Z,20.68
2022-08-03T01:43:58.901Z,20.58
2022-08-03T01:46:40.683Z,20.36
2022-08-03T01:49:17.838Z,20.57
2022-08-03T01:52:03.521Z,20.95
2022-08-03T01:54:43.837Z,21.04
2022-08-03T01:57:13.595Z,20.86
2022-08-03T01:59:43.026Z,20.79
2022-08-03T02:02:33.623Z,20.74
2022-08-03T02:05:10.625Z,20.46
2022-08-03T02:07:41.354Z,20.64
2022-08-03T02:10:10.714Z,20.57
2022-08-03T02:12:39.138Z,20.65
2022-08-03T02:15:08.277Z,20.55
2022-08-03T02:17:38.535Z,20.39
2022-08-03T02:20:12.452Z,20.37
2022-08-03T02:22:42.675Z,20.62
2022-08-03T02:25:12.610Z,20.73
2022-08-03T02:34:28.776Z,20.75
2022-08-03T02:37:00.487Z,20.36
2022-08-03T02:39:30.795Z,20.39
2022-08-03T02:42:03.784Z,20.41
2022-08-03T02:44:34.200Z,20.41
2022-08-03T02:47:06.729Z,20.39
2022-08-03T02:49:51.707Z,20.45
2022-08-03T02:52:22.308Z,20.46
2022-08-03T02:54:53.712Z,20.42
2022-08-03T02:57:23.956Z,20.53
2022-08-03T02:59:53.293Z,20.56
2022-08-03T03:02:22.548Z,20.46
2022-08-03T03:04:59.722Z,20.36
2022-08-03T03:07:51.501Z,20.40
2022-08-03T03:10:21.953Z,20.41
2022-08-03T03:12:55.002Z,20.47
2022-08-03T03:15:23.859Z,20.48
2022-08-03T03:17:52.049Z,20.36
2022-08-03T03:20:29.289Z,20.48
2022-08-03T03:23:01.645Z,20.28
2022-08-03T03:25:33.073Z,20.27
2022-08-03T03:28:01.115Z,20.31
2022-08-03T03:30:30.087Z,20.20
2022-08-03T03:32:58.654Z,20.12
2022-08-03T03:35:27.673Z,20.26
2022-08-03T03:37:55.270Z,20.07
2022-08-03T03:40:22.787Z,19.94
2022-08-03T03:42:50.797Z,19.90
2022-08-03T03:45:18.446Z,19.92
2022-08-03T03:47:45.791Z,20.18
2022-08-03T03:50:15.551Z,20.23
2022-08-03T03:52:42.937Z,20.25
2022-08-03T03:55:10.342Z,20.29
2022-08-03T03:57:38.468Z,20.51
2022-08-03T04:00:07.018Z,20.83
2022-08-03T04:02:34.283Z,20.94
2022-08-03T04:05:20.451Z,21.04
2022-08-03T04:08:17.038Z,20.88
2022-08-03T04:11:00.830Z,21.09
2022-08-03T04:13:39.988Z,21.17
2022-08-03T04:16:09.439Z,20.95
2022-08-03T04:18:39.385Z,20.75
2022-08-03T04:21:09.577Z,21.42
2022-08-03T04:23:40.839Z,21.70
2022-08-03T04:26:10.245Z,22.09
2022-08-03T04:28:39.853Z,22.19
2022-08-03T04:31:07.626Z,22.69
2022-08-03T04:33:37.477Z,22.87
2022-08-03T04:36:08.015Z,23.04
2022-08-03T04:38:39.523Z,23.32
2022-08-03T04:41:07.953Z,23.67
2022-08-03T04:43:35.660Z,23.66
2022-08-03T04:46:03.129Z,24.01
2022-08-03T04:48:30.989Z,24.04
2022-08-03T04:50:58.381Z,24.48
2022-08-03T04:53:25.761Z,24.79
2022-08-03T04:55:53.405Z,24.99
2022-08-03T04:58:20.725Z,24.85
2022-08-03T05:00:51.344Z,25.13
2022-08-03T05:03:24.351Z,25.40
2022-08-03T05:06:01.960Z,25.62
2022-08-03T05:08:46.244Z,25.86
2022-08-03T05:11:16.997Z,26.06
2022-08-03T05:13:45.365Z,26.12
2022-08-03T05:16:13.926Z,25.57
2022-08-03T05:18:42.303Z,25.54
2022-08-03T05:21:11.026Z,26.00
2022-08-03T05:23:38.396Z,26.12
2022-08-03T05:26:05.742Z,26.29
2022-08-03T05:28:33.369Z,26.42
2022-08-03T05:31:00.742Z,26.47
2022-08-03T05:33:28.689Z,26.81
2022-08-03T05:36:03.571Z,27.26
2022-08-03T05:38:34.257Z,27.60
2022-08-03T05:41:22.765Z,27.57
2022-08-03T05:43:53.745Z,27.84
2022-08-03T05:46:23.169Z,28.18
2022-08-03T05:48:50.698Z,28.19
2022-08-03T05:51:18.166Z,28.27
2022-08-03T05:53:46.265Z,28.29
2022-08-03T05:56:16.311Z,28.18
2022-08-03T05:58:47.991Z,27.79
2022-08-03T06:01:16.642Z,28.56
2022-08-03T06:03:45.528Z,28.19
2022-08-03T06:06:12.981Z,27.87
2022-08-03T06:08:41.625Z,27.75
2022-08-03T06:11:09.827Z,27.66
2022-08-03T06:13:37.352Z,27.83
2022-08-03T06:16:05.364Z,26.85
2022-08-03T06:18:33.017Z,27.70
2022-08-03T06:21:14.495Z,28.05
2022-08-03T06:23:53.356Z,27.96
2022-08-03T06:26:26.948Z,28.21
2022-08-03T06:28:55.459Z,28.48
2022-08-03T06:31:26.009Z,28.61
2022-08-03T06:34:33.509Z,28.74
2022-08-03T06:36:52.466Z,28.13
2022-08-03T06:39:23.395Z,27.93
2022-08-03T06:41:52.259Z,27.82
2022-08-03T06:44:20.094Z,27.73
2022-08-03T06:46:47.848Z,27.97
2022-08-03T06:49:15.370Z,28.29
2022-08-03T06:52:04.442Z,28.62
2022-08-03T06:54:33.326Z,28.72
2022-08-03T06:57:01.274Z,28.41
2022-08-03T07:00:06.231Z,28.81
2022-08-03T07:02:19.257Z,28.19
2022-08-03T07:04:50.271Z,28.92
2022-08-03T07:07:19.404Z,29.06
2022-08-03T07:09:56.520Z,28.75
2022-08-03T07:12:29.596Z,29.54
2022-08-03T07:15:01.838Z,30.02
2022-08-03T07:17:33.599Z,30.21
2022-08-03T07:20:02.191Z,29.67
2022-08-03T07:22:30.036Z,28.83
2022-08-03T07:24:57.431Z,29.72
2022-08-03T07:27:27.044Z,28.67
2022-08-03T07:29:55.449Z,29.13
2022-08-03T07:32:23.473Z,28.37
2022-08-03T07:34:51.084Z,28.22
2022-08-03T07:37:18.800Z,28.95
2022-08-03T07:39:46.181Z,28.67
2022-08-03T07:42:13.710Z,28.92
2022-08-03T07:44:41.682Z,29.38
2022-08-03T07:47:09.271Z,29.11
2022-08-03T07:49:41.332Z,28.38
2022-08-03T07:52:28.378Z,28.36
2022-08-03T07:54:55.979Z,28.86
2022-08-03T07:57:23.843Z,28.78
2022-08-03T08:00:01.505Z,28.32
2022-08-03T08:02:40.068Z,28.34
2022-08-03T08:05:08.143Z,27.95
2022-08-03T08:07:35.515Z,28.60
2022-08-03T08:10:03.014Z,29.10
2022-08-03T08:12:30.710Z,28.43
2022-08-03T08:14:58.353Z,28.94
2022-08-03T08:17:25.727Z,29.13
2022-08-03T08:19:53.585Z,29.75
2022-08-03T08:22:25.859Z,28.47
2022-08-03T08:25:01.581Z,28.97
2022-08-03T08:28:28.995Z,28.74
2022-08-03T08:30:19.562Z,29.10
2022-08-03T08:32:47.772Z,29.24
2022-08-03T08:35:15.493Z,29.52
2022-08-03T08:37:43.498Z,29.08
2022-08-03T08:40:21.496Z,28.84
2022-08-03T08:42:58.290Z,28.37
2022-08-03T08:45:28.061Z,28.92
2022-08-03T08:48:01.005Z,29.37
2022-08-03T08:50:30.943Z,29.52
2022-08-03T08:53:02.988Z,29.78
2022-08-03T08:55:59.796Z,29.72
2022-08-03T08:58:19.792Z,29.99
2022-08-03T09:00:48.628Z,29.02
2022-08-03T09:03:26.181Z,28.94
2022-08-03T09:06:02.337Z,28.22
2022-08-03T09:08:31.393Z,28.80
2022-08-03T09:10:59.475Z,28.93
2022-08-03T09:13:27.017Z,29.13
2022-08-03T09:16:15.286Z,28.71
2022-08-03T09:18:44.470Z,28.78
2022-08-03T09:21:34.757Z,29.34
2022-08-03T09:24:06.296Z,29.65
2022-08-03T09:26:36.001Z,29.52
2022-08-03T09:29:10.896Z,29.49
2022-08-03T09:31:44.059Z,30.04
2022-08-03T09:34:16.800Z,30.13
2022-08-03T09:36:48.774Z,30.56
2022-08-03T09:39:41.446Z,30.55
2022-08-03T09:42:18.392Z,30.82
2022-08-03T09:44:48.103Z,30.77
2022-08-03T09:47:28.420Z,30.46
2022-08-03T09:50:02.315Z,30.15
2022-08-03T09:52:49.297Z,30.39
2022-08-03T09:56:34.032Z,29.84
2022-08-03T09:58:14.334Z,30.33
2022-08-03T10:01:05.229Z,30.34
2022-08-03T10:04:03.106Z,30.56
2022-08-03T10:06:28.945Z,30.33
2022-08-03T10:09:11.215Z,30.12
2022-08-03T10:11:42.051Z,30.10
2022-08-03T10:14:18.886Z,30.18
2022-08-03T10:16:47.579Z,30.54
2022-08-03T10:19:15.942Z,30.46
2022-08-03T10:22:03.868Z,29.82
2022-08-03T10:24:35.175Z,29.98
2022-08-03T10:27:05.500Z,29.46
2022-08-03T10:29:38.458Z,30.07
2022-08-03T10:32:24.212Z,29.55
2022-08-03T10:35:00.215Z,29.98
2022-08-03T10:37:34.818Z,30.26
2022-08-03T10:40:02.957Z,30.50
2022-08-03T10:42:31.921Z,30.64
2022-08-03T10:45:07.868Z,30.83
2022-08-03T10:47:36.308Z,31.01
2022-08-03T10:50:04.344Z,30.63
2022-08-03T10:52:38.253Z,30.44
2022-08-03T10:55:59.313Z,30.23
2022-08-03T10:58:53.451Z,30.98
2022-08-03T11:02:00.823Z,30.23
2022-08-03T11:04:30.184Z,30.44
2022-08-03T11:07:22.933Z,30.61
2022-08-03T11:09:50.526Z,30.07
2022-08-03T11:12:28.426Z,30.59
2022-08-03T11:15:02.356Z,30.44
2022-08-03T11:17:30.129Z,30.63
2022-08-03T11:19:58.550Z,30.30
2022-08-03T11:22:48.988Z,30.65
2022-08-03T11:25:54.403Z,31.43
2022-08-03T11:28:27.054Z,31.86
2022-08-03T11:30:54.822Z,31.48
2022-08-03T11:33:31.573Z,30.93
2022-08-03T11:36:01.244Z,30.68
2022-08-03T11:38:28.692Z,30.70
2022-08-03T11:40:56.076Z,30.84
2022-08-03T11:43:31.359Z,30.48
2022-08-03T11:46:06.119Z,30.18
2022-08-03T11:48:33.595Z,30.60
2022-08-03T11:51:01.990Z,30.48
2022-08-03T11:53:29.357Z,30.86
2022-08-03T11:55:59.806Z,31.19
2022-08-03T11:59:01.644Z,31.26
2022-08-03T12:01:22.884Z,31.42
2022-08-03T12:03:51.941Z,31.46
2022-08-03T12:06:19.556Z,31.61
2022-08-03T12:09:15.822Z,31.92
2022-08-03T12:11:59.406Z,31.73
2022-08-03T12:14:48.419Z,31.88
2022-08-03T12:17:18.159Z,31.15
2022-08-03T12:19:45.713Z,31.21
2022-08-03T12:22:13.634Z,30.70
2022-08-03T12:24:46.848Z,30.89
2022-08-03T12:27:24.105Z,31.27
2022-08-03T12:29:58.561Z,30.99
2022-08-03T12:32:27.474Z,30.99
2022-08-03T12:35:01.856Z,30.62
2022-08-03T12:37:29.961Z,30.46
2022-08-03T12:40:07.912Z,30.74
2022-08-03T12:42:39.410Z,30.74
2022-08-03T12:45:27.354Z,31.01
2022-08-03T12:47:57.524Z,31.13
2022-08-03T12:50:29.455Z,31.13
2022-08-03T12:52:57.762Z,31.57
2022-08-03T12:55:57.855Z,31.64
2022-08-03T12:58:35.377Z,31.58
2022-08-03T13:01:09.526Z,32.37
2022-08-03T13:03:49.921Z,32.72
2022-08-03T13:06:25.948Z,32.52
2022-08-03T13:09:04.925Z,32.30
2022-08-03T13:11:53.625Z,32.85
2022-08-03T13:14:20.669Z,32.76
2022-08-03T13:16:49.705Z,32.19
2022-08-03T13:19:17.150Z,31.53
2022-08-03T13:21:53.476Z,32.06
2022-08-03T13:24:33.084Z,31.59
2022-08-03T13:27:00.899Z,32.44
2022-08-03T13:29:48.514Z,32.25
2022-08-03T13:32:16.111Z,31.91
2022-08-03T13:34:43.642Z,31.71
2022-08-03T13:37:12.151Z,31.81
2022-08-03T13:39:57.955Z,31.62
2022-08-03T13:42:29.439Z,31.90
2022-08-03T13:44:56.929Z,32.05
2022-08-03T13:47:24.436Z,32.06
2022-08-03T13:50:00.118Z,32.29
2022-08-03T13:52:31.883Z,31.63
2022-08-03T13:55:00.310Z,31.77
2022-08-03T13:58:04.793Z,32.06
2022-08-03T14:00:27.658Z,31.67
2022-08-03T14:03:12.884Z,31.26
2022-08-03T14:05:42.156Z,31.62
2022-08-03T14:08:10.147Z,32.07
2022-08-03T14:10:40.082Z,31.55
2022-08-03T14:13:07.691Z,32.16
2022-08-03T14:15:38.035Z,32.52
2022-08-03T14:18:15.727Z,32.27
2022-08-03T14:20:50.323Z,31.78
2022-08-03T14:23:21.793Z,31.48
2022-08-03T14:25:52.526Z,31.64
2022-08-03T14:28:22.941Z,32.19
2022-08-03T14:30:51.526Z,31.93
2022-08-03T14:33:19.014Z,32.32
2022-08-03T14:35:46.463Z,32.23
2022-08-03T14:38:14.377Z,32.55
2022-08-03T14:40:42.170Z,32.78
2022-08-03T14:43:09.572Z,33.16
2022-08-03T14:45:37.211Z,32.87
2022-08-03T14:50:32.847Z,32.57
2022-08-03T14:50:53.058Z,32.93
2022-08-03T14:53:20.854Z,32.77
2022-08-03T14:55:51.333Z,32.78
2022-08-03T14:58:21.193Z,32.69
2022-08-03T15:00:50.275Z,32.75
2022-08-03T15:03:20.460Z,32.67
2022-08-03T15:05:48.320Z,32.70
2022-08-03T15:08:16.028Z,32.85
2022-08-03T15:10:44.901Z,32.61
2022-08-03T15:13:13.473Z,32.64
2022-08-03T15:15:41.188Z,32.40
2022-08-03T15:18:08.655Z,32.56
2022-08-03T15:20:44.582Z,32.44
2022-08-03T15:23:14.263Z,31.64
2022-08-03T15:26:03.612Z,31.67
2022-08-03T15:28:30.825Z,31.79
2022-08-03T15:30:58.682Z,32.03
2022-08-03T15:33:26.063Z,32.04
2022-08-03T15:35:53.511Z,31.87
2022-08-03T15:38:26.257Z,31.91
2022-08-03T15:40:54.740Z,31.88
2022-08-03T15:43:23.271Z,31.77
2022-08-03T15:46:19.083Z,31.81
2022-08-03T15:48:39.333Z,31.69
2022-08-03T15:51:07.776Z,31.77
2022-08-03T15:53:35.165Z,31.60
2022-08-03T15:56:09.389Z,31.75
2022-08-03T15:59:09.822Z,31.74
2022-08-03T16:01:26.761Z,31.36
2022-08-03T16:03:54.429Z,31.56
2022-08-03T16:06:34.725Z,31.38
2022-08-03T16:09:23.742Z,31.52
2022-08-03T16:11:55.328Z,31.52
2022-08-03T16:14:34.662Z,31.46
2022-08-03T16:17:05.374Z,31.28
2022-08-03T16:19:33.011Z,31.13
2022-08-03T16:22:00.971Z,31.28
2022-08-03T16:24:28.540Z,31.37
2022-08-03T16:26:56.849Z,31.01
2022-08-03T16:29:24.386Z,30.91
2022-08-03T16:31:52.838Z,31.14
2022-08-03T16:34:21.231Z,31.45
2022-08-03T16:36:48.643Z,31.33
2022-08-03T16:39:16.061Z,31.34
2022-08-03T16:41:53.957Z,31.36
2022-08-03T16:44:29.997Z,31.58
2022-08-03T16:46:58.619Z,31.45
2022-08-03T16:49:54.748Z,31.27
2022-08-03T16:52:13.944Z,31.47
2022-08-03T16:54:44.544Z,31.33
2022-08-03T16:57:59.263Z,31.17
2022-08-03T17:00:12.404Z,31.80
2022-08-03T17:03:01.235Z,31.79
2022-08-03T17:05:43.782Z,31.75
2022-08-03T17:08:15.726Z,31.81
2022-08-03T17:10:45.941Z,31.74
2022-08-03T17:13:21.892Z,31.63
2022-08-03T17:16:00.962Z,31.66
2022-08-03T17:18:35.342Z,31.62
2022-08-03T17:21:06.263Z,31.56
2022-08-03T17:23:50.786Z,31.76
2022-08-03T17:26:21.929Z,31.54
2022-08-03T17:28:57.758Z,31.38
2022-08-03T17:31:31.344Z,31.27
2022-08-03T17:34:01.063Z,31.13
2022-08-03T17:36:53.922Z,31.28
2022-08-03T17:39:23.561Z,31.07
2022-08-03T17:42:00.843Z,31.05
2022-08-03T17:44:42.838Z,31.08
2022-08-03T17:47:13.922Z,31.00
2022-08-03T17:49:46.629Z,30.37
2022-08-03T17:52:18.158Z,30.46
2022-08-03T17:55:55.680Z,30.51
2022-08-03T17:58:06.509Z,30.34
2022-08-03T18:00:54.064Z,30.36
2022-08-03T18:03:58.404Z,30.41
2022-08-03T18:06:31.629Z,30.21
2022-08-03T18:09:04.833Z,30.26
2022-08-03T18:11:37.124Z,29.98
2022-08-03T18:14:16.400Z,29.85
2022-08-03T18:16:46.396Z,29.80
2022-08-03T18:19:14.671Z,29.67
2022-08-03T18:22:03.366Z,29.40
2022-08-03T18:24:31.172Z,29.38
2022-08-03T18:26:59.619Z,29.39
2022-08-03T18:29:30.609Z,29.18
2022-08-03T18:32:03.066Z,29.02
2022-08-03T18:34:34.250Z,29.00
2022-08-03T18:37:07.317Z,29.02
2022-08-03T18:39:49.810Z,28.83
2022-08-03T18:42:20.089Z,28.82
2022-08-03T18:44:55.947Z,28.61
2022-08-03T18:50:58.995Z,28.30
2022-08-03T18:54:01.757Z,28.50
2022-08-03T18:56:20.622Z,28.56
2022-08-03T18:59:02.247Z,28.10
2022-08-03T19:01:59.581Z,28.10
2022-08-03T19:04:35.089Z,28.00
2022-08-03T19:07:08.917Z,27.78
2022-08-03T19:10:09.352Z,28.00
2022-08-03T19:12:51.856Z,27.52
2022-08-03T19:15:36.550Z,27.52
2022-08-03T19:18:08.749Z,27.51
2022-08-03T19:20:38.644Z,27.59
2022-08-03T19:23:06.731Z,27.94
2022-08-03T19:25:38.674Z,27.93
2022-08-03T19:28:09.074Z,27.67
2022-08-03T19:30:40.023Z,27.68
2022-08-03T19:33:14.256Z,27.39
2022-08-03T19:35:55.472Z,27.46
2022-08-03T19:38:27.515Z,27.40
2022-08-03T19:41:03.029Z,27.30
2022-08-03T19:43:58.090Z,27.27
2022-08-03T19:46:30.939Z,27.24
2022-08-03T19:49:10.547Z,27.04
2022-08-03T19:52:00.759Z,27.18
2022-08-03T19:54:39.614Z,27.14
2022-08-03T19:57:18.395Z,27.00
2022-08-03T19:59:49.971Z,26.72
2022-08-03T20:02:26.375Z,26.78
2022-08-03T20:04:59.797Z,26.72
2022-08-03T20:07:30.970Z,26.55
2022-08-03T20:12:49.970Z,26.62
2022-08-03T20:18:05.458Z,26.78
2022-08-03T20:20:46.249Z,26.56
2022-08-03T20:23:17.599Z,26.49
2022-08-03T20:25:57.431Z,26.65
2022-08-03T20:28:33.045Z,26.54
2022-08-03T20:31:01.987Z,26.38
2022-08-03T20:33:45.879Z,26.52
2022-08-03T20:36:18.506Z,26.35
2022-08-03T20:38:51.000Z,26.30
2022-08-03T20:41:19.988Z,26.32
2022-08-03T20:43:49.398Z,26.23
2022-08-03T20:46:31.684Z,26.19
2022-08-03T20:49:04.830Z,25.90
2022-08-03T20:51:50.578Z,26.15
2022-08-03T20:54:29.578Z,25.92
2022-08-03T20:57:03.434Z,25.97
2022-08-03T20:59:46.806Z,25.71
2022-08-03T21:02:19.906Z,25.73
2022-08-03T21:05:03.702Z,25.71
2022-08-03T21:07:45.619Z,25.88
2022-08-03T21:10:31.209Z,25.84
2022-08-03T21:13:00.464Z,28.41
2022-08-03T21:13:03.563Z,26.70
2022-08-03T21:13:10.957Z,26.56
2022-08-03T21:13:16.712Z,25.71
2022-08-03T21:16:04.732Z,25.74
2022-08-03T21:18:39.452Z,25.59
2022-08-03T21:21:08.596Z,25.51
2022-08-03T21:23:47.966Z,25.68
2022-08-03T21:26:24.799Z,25.58
2022-08-03T21:28:54.156Z,25.64
2022-08-03T21:31:25.667Z,25.31
2022-08-03T21:34:00.312Z,25.11
2022-08-03T21:36:31.633Z,25.21
2022-08-03T21:38:59.477Z,25.11
2022-08-03T21:41:29.161Z,25.20
2022-08-03T21:43:57.300Z,25.09
2022-08-03T21:46:26.952Z,25.06
2022-08-03T21:49:51.900Z,25.07
2022-08-03T21:51:45.362Z,25.02
2022-08-03T21:54:13.428Z,25.04
2022-08-03T21:56:43.293Z,25.03
2022-08-03T21:59:17.550Z,24.83
2022-08-03T22:01:45.953Z,24.82
2022-08-03T22:04:50.363Z,24.89
2022-08-03T22:07:08.163Z,24.74
2022-08-03T22:09:36.704Z,24.72
2022-08-03T22:12:04.767Z,24.82
2022-08-03T22:14:33.148Z,24.77
2022-08-03T22:17:06.357Z,24.65
2022-08-03T22:19:34.591Z,24.42
2022-08-03T22:22:06.023Z,24.56
2022-08-03T22:24:35.574Z,24.54
2022-08-03T22:27:22.542Z,24.49
2022-08-03T22:29:51.057Z,24.41
2022-08-03T22:32:18.939Z,24.42
2022-08-03T22:34:47.649Z,24.44
2022-08-03T22:37:20.526Z,24.12
2022-08-03T22:39:50.281Z,24.31
2022-08-03T22:42:20.062Z,24.43
2022-08-03T22:44:49.934Z,24.18
2022-08-03T22:47:22.550Z,24.23
2022-08-03T22:50:30.683Z,24.34
2022-08-03T22:52:42.207Z,24.27
2022-08-03T22:55:12.424Z,23.98
2022-08-03T22:57:55.631Z,24.10
2022-08-03T23:00:23.871Z,23.87
2022-08-03T23:02:53.889Z,23.48
2022-08-03T23:06:01.532Z,23.91
2022-08-03T23:08:14.914Z,23.77
2022-08-03T23:10:46.996Z,23.24
2022-08-03T23:13:16.974Z,23.35
2022-08-03T23:15:52.010Z,23.14
2022-08-03T23:18:21.381Z,23.24
2022-08-03T23:20:53.202Z,23.49
2022-08-03T23:23:20.866Z,23.02
2022-08-03T23:25:50.198Z,23.04
2022-08-03T23:28:17.788Z,23.07
2022-08-03T23:30:45.702Z,23.23
2022-08-03T23:33:16.892Z,23.38
2022-08-03T23:36:18.755Z,23.32
2022-08-03T23:38:45.056Z,23.07
2022-08-03T23:41:12.809Z,22.80
2022-08-03T23:43:51.439Z,22.72
2022-08-03T23:46:21.957Z,22.81
2022-08-03T23:48:50.825Z,22.79
2022-08-03T23:51:36.454Z,22.70
2022-08-03T23:54:20.133Z,22.75
2022-08-03T23:57:06.295Z,22.31
2022-08-03T23:59:52.527Z,22.54
